createdAt,value
2022-12-24T00:03:24.535Z,116.00
2022-12-24T00:08:26.542Z,126.03
2022-12-24T00:13:28.461Z,120.57
2022-12-24T00:18:30.725Z,115.20
2022-12-24T00:23:32.885Z,141.10
2022-12-24T00:28:35.117Z,102.22
2022-12-24T00:33:36.996Z,142.98
2022-12-24T00:38:39.581Z,243.23
2022-12-24T00:43:41.417Z,63.33
2022-12-24T00:48:43.262Z,54.03
2022-12-24T00:53:45.183Z,97.40
2022-12-24T00:58:47.497Z,110.43
2022-12-24T01:03:51.157Z,68.63
2022-12-24T01:08:53.190Z,68.53
2022-12-24T01:13:56.170Z,255.02
2022-12-24T01:18:58.037Z,288.60
2022-12-24T01:23:59.914Z,277.20
2022-12-24T01:29:02.045Z,395.75
2022-12-24T01:34:04.001Z,533.72
2022-12-24T01:39:05.822Z,564.30
2022-12-24T01:44:36.159Z,408.42
2022-12-24T01:49:43.182Z,493.52
2022-12-24T01:54:51.011Z,287.13
2022-12-24T01:59:58.070Z,377.30
2022-12-24T02:05:34.880Z,317.23
2022-12-24T02:10:37.045Z,446.88
2022-12-24T02:16:22.122Z,255.30
2022-12-24T02:21:24.885Z,444.23
2022-12-24T02:26:42.669Z,787.40
2022-12-24T02:31:48.827Z,499.98
2022-12-24T02:36:59.815Z,413.08
2022-12-24T02:42:06.518Z,344.15
2022-12-24T02:47:11.556Z,420.42
2022-12-24T02:52:34.540Z,511.90
2022-12-24T02:58:01.951Z,595.15
2022-12-24T03:03:18.315Z,513.72
2022-12-24T03:08:23.198Z,478.48
2022-12-24T03:13:28.237Z,449.90
2022-12-24T03:18:30.918Z,377.33
2022-12-24T03:23:34.853Z,366.95
2022-12-24T03:28:39.565Z,382.80
2022-12-24T03:33:41.770Z,360.90
2022-12-24T03:38:43.695Z,203.15
2022-12-24T03:43:45.594Z,266.42
2022-12-24T03:48:47.545Z,139.95
2022-12-24T03:53:51.782Z,465.80
2022-12-24T03:58:54.319Z,366.63
2022-12-24T04:03:56.233Z,162.00
2022-12-24T04:09:01.647Z,274.65
2022-12-24T04:14:03.655Z,500.33
2022-12-24T04:19:05.531Z,447.13
2022-12-24T04:24:07.474Z,448.48
2022-12-24T04:29:09.406Z,615.75
2022-12-24T04:34:11.670Z,562.58
2022-12-24T04:39:13.555Z,147.95
2022-12-24T04:44:15.462Z,444.98
2022-12-24T04:49:17.346Z,283.75
2022-12-24T04:54:19.233Z,317.08
2022-12-24T04:59:21.170Z,223.55
2022-12-24T05:04:23.036Z,141.93
2022-12-24T05:09:24.927Z,103.13
2022-12-24T05:14:26.835Z,73.60
2022-12-24T05:19:28.870Z,161.88
2022-12-24T05:24:49.363Z,302.45
2022-12-24T05:29:51.236Z,304.63
2022-12-24T05:34:53.238Z,190.48
2022-12-24T05:39:55.202Z,365.35
2022-12-24T05:44:57.102Z,317.13
2022-12-24T05:49:59.019Z,312.33
2022-12-24T05:55:00.898Z,163.95
2022-12-24T06:00:03.331Z,161.32
2022-12-24T06:05:14.264Z,83.15
2022-12-24T06:10:16.230Z,117.45
2022-12-24T06:15:23.708Z,113.68
2022-12-24T06:20:26.180Z,103.53
2022-12-24T06:25:28.037Z,77.70
2022-12-24T06:30:29.890Z,67.25
2022-12-24T06:35:33.180Z,63.28
2022-12-24T06:40:35.102Z,62.83
2022-12-24T06:45:37.219Z,66.55
2022-12-24T06:50:39.414Z,66.13
2022-12-24T06:55:41.245Z,63.67
2022-12-24T07:00:43.141Z,63.85
2022-12-24T07:05:44.958Z,56.28
2022-12-24T07:10:53.910Z,57.28
2022-12-24T07:16:01.258Z,48.25
2022-12-24T07:21:05.043Z,42.35
2022-12-24T07:26:07.546Z,48.58
2022-12-24T07:31:09.547Z,37.22
2022-12-24T07:36:19.495Z,41.08
2022-12-24T07:41:21.366Z,35.42
2022-12-24T07:46:23.590Z,33.90
2022-12-24T07:51:25.507Z,42.10
2022-12-24T07:56:27.427Z,44.50
2022-12-24T08:01:29.400Z,44.47
2022-12-24T08:06:31.522Z,59.38
2022-12-24T08:11:33.559Z,57.22
2022-12-24T08:16:35.476Z,61.67
2022-12-24T08:21:37.435Z,59.20
2022-12-24T08:26:39.445Z,48.13
2022-12-24T08:31:42.185Z,59.03
2022-12-24T08:36:44.254Z,62.03
2022-12-24T08:41:46.400Z,52.80
2022-12-24T08:46:48.236Z,47.75
2022-12-24T08:51:51.411Z,46.53
2022-12-24T08:56:53.259Z,39.47
2022-12-24T09:01:55.353Z,36.03
2022-12-24T09:06:57.320Z,36.20
2022-12-24T09:11:59.262Z,36.67
2022-12-24T09:17:01.230Z,49.90
2022-12-24T09:22:03.519Z,47.45
2022-12-24T09:27:05.575Z,41.30
2022-12-24T09:32:08.113Z,36.92
2022-12-24T09:37:10.183Z,29.60
2022-12-24T09:42:33.846Z,26.73
2022-12-24T09:47:53.876Z,25.70
2022-12-24T09:52:57.998Z,27.42
2022-12-24T09:58:02.375Z,22.60
2022-12-24T10:03:15.795Z,24.70
2022-12-24T10:08:29.468Z,24.33
2022-12-24T10:13:50.169Z,21.50
2022-12-24T10:19:05.567Z,23.73
2022-12-24T10:24:25.252Z,24.90
2022-12-24T10:29:37.750Z,25.00
2022-12-24T10:34:53.762Z,26.55
2022-12-24T10:40:00.766Z,29.80
2022-12-24T10:45:05.966Z,25.63
2022-12-24T10:50:39.498Z,26.38
2022-12-24T10:55:41.966Z,27.05
2022-12-24T11:00:50.916Z,27.50
2022-12-24T11:06:07.054Z,27.08
2022-12-24T11:11:12.697Z,26.17
2022-12-24T11:16:28.633Z,30.55
2022-12-24T11:21:39.300Z,35.35
2022-12-24T11:26:44.645Z,35.60
2022-12-24T11:31:47.975Z,32.28
2022-12-24T11:36:51.341Z,24.40
2022-12-24T11:41:54.386Z,25.00
2022-12-24T11:46:57.165Z,22.73
2022-12-24T11:52:11.408Z,23.83
2022-12-24T11:57:16.194Z,24.67
2022-12-24T12:02:29.776Z,20.13
2022-12-24T12:07:35.314Z,21.27
2022-12-24T12:12:42.607Z,22.83
2022-12-24T12:18:17.954Z,23.17
2022-12-24T12:23:33.855Z,21.92
2022-12-24T12:28:41.088Z,19.10
2022-12-24T12:33:54.887Z,19.98
2022-12-24T12:38:56.809Z,26.75
2022-12-24T12:44:01.717Z,23.48
2022-12-24T12:49:24.534Z,26.17
2022-12-24T12:54:44.522Z,21.33
2022-12-24T13:00:00.050Z,31.58
2022-12-24T13:05:16.922Z,29.67
2022-12-24T13:10:56.463Z,28.85
2022-12-24T13:16:10.261Z,35.95
2022-12-24T13:26:19.445Z,31.80
2022-12-24T13:31:21.345Z,26.60
2022-12-24T13:36:25.307Z,28.30
2022-12-24T13:41:40.535Z,30.00
2022-12-24T13:46:51.789Z,31.27
2022-12-24T13:52:11.758Z,27.90
2022-12-24T13:57:25.879Z,29.88
2022-12-24T14:02:32.534Z,27.88
2022-12-24T14:07:36.465Z,27.45
2022-12-24T14:12:50.430Z,27.48
2022-12-24T14:17:52.689Z,25.95
2022-12-24T14:22:56.928Z,30.83
2022-12-24T14:28:05.319Z,37.47
2022-12-24T14:33:33.795Z,35.10
2022-12-24T14:38:36.034Z,33.78
2022-12-24T14:43:47.241Z,33.35
2022-12-24T14:48:59.174Z,29.80
2022-12-24T14:54:33.745Z,33.00
2022-12-24T14:59:56.414Z,30.40
2022-12-24T15:05:19.981Z,38.38
2022-12-24T15:10:40.012Z,46.33
2022-12-24T15:15:52.238Z,47.47
2022-12-24T15:21:03.658Z,48.50
2022-12-24T15:26:23.788Z,44.20
2022-12-24T15:31:28.013Z,45.55
2022-12-24T15:36:36.684Z,41.20
2022-12-24T15:42:02.353Z,42.78
2022-12-24T15:47:07.866Z,49.63
2022-12-24T15:52:14.557Z,46.55
2022-12-24T15:57:33.917Z,43.65
2022-12-24T16:02:43.204Z,58.30
2022-12-24T16:08:15.036Z,61.70
2022-12-24T16:13:23.627Z,60.97
2022-12-24T16:18:51.627Z,64.60
2022-12-24T16:23:55.951Z,67.30
2022-12-24T16:28:57.966Z,70.93
2022-12-24T16:34:01.396Z,63.78
2022-12-24T16:39:22.009Z,63.47
2022-12-24T16:44:23.933Z,72.47
2022-12-24T16:49:26.233Z,70.40
2022-12-24T16:54:30.032Z,64.32
2022-12-24T17:04:34.719Z,68.43
2022-12-24T17:09:36.613Z,59.78
2022-12-24T17:14:39.444Z,62.20
2022-12-24T17:19:41.319Z,61.77
2022-12-24T17:24:43.310Z,62.38
2022-12-24T17:29:45.510Z,61.83
2022-12-24T17:34:47.416Z,61.22
2022-12-24T17:39:49.287Z,61.58
2022-12-24T17:44:51.206Z,65.30
2022-12-24T17:49:53.104Z,64.55
2022-12-24T17:54:55.358Z,61.72
2022-12-24T17:59:59.991Z,66.53
2022-12-24T18:05:01.866Z,67.75
2022-12-24T18:10:04.731Z,59.67
2022-12-24T18:15:07.308Z,55.53
2022-12-24T18:20:09.460Z,54.90
2022-12-24T18:25:11.360Z,55.70
2022-12-24T18:30:13.688Z,61.00
2022-12-24T18:35:15.866Z,63.00
2022-12-24T18:40:18.170Z,67.60
2022-12-24T18:45:20.104Z,65.97
2022-12-24T18:50:22.024Z,61.10
2022-12-24T18:55:23.998Z,58.25
2022-12-24T19:00:26.187Z,58.67
2022-12-24T19:05:28.063Z,60.58
2022-12-24T19:10:29.918Z,58.58
2022-12-24T19:15:35.784Z,57.55
2022-12-24T19:20:39.799Z,69.75
2022-12-24T19:30:43.540Z,73.03
2022-12-24T19:35:45.653Z,69.95
2022-12-24T19:40:47.542Z,75.90
2022-12-24T19:45:57.579Z,78.20
2022-12-24T19:51:04.521Z,83.05
2022-12-24T19:56:08.716Z,80.72
2022-12-24T20:01:16.742Z,71.07
2022-12-24T20:06:22.102Z,73.47
2022-12-24T20:11:23.976Z,66.72
2022-12-24T20:16:26.946Z,79.80
2022-12-24T20:21:29.611Z,85.55
2022-12-24T20:26:31.553Z,84.97
2022-12-24T20:31:33.854Z,96.60
2022-12-24T20:36:37.233Z,79.60
2022-12-24T20:41:39.401Z,75.88
2022-12-24T20:46:41.295Z,78.80
2022-12-24T20:51:43.186Z,77.10
2022-12-24T20:56:45.232Z,95.85
2022-12-24T21:01:59.882Z,92.40
2022-12-24T21:07:01.973Z,76.43
2022-12-24T21:12:22.386Z,78.90
2022-12-24T21:17:24.390Z,63.00
2022-12-24T21:22:26.757Z,63.53
2022-12-24T21:27:29.610Z,70.78
2022-12-24T21:32:31.731Z,69.80
2022-12-24T21:37:34.099Z,61.83
2022-12-24T21:42:37.026Z,63.45
2022-12-24T21:47:39.200Z,62.57
2022-12-24T21:52:41.277Z,59.20
2022-12-24T21:57:55.380Z,61.13
2022-12-24T22:02:58.615Z,65.10
2022-12-24T22:08:19.579Z,69.05
2022-12-24T22:13:21.472Z,61.10
2022-12-24T22:18:26.518Z,65.85
2022-12-24T22:23:28.490Z,69.45
2022-12-24T22:28:30.346Z,84.03
2022-12-24T22:33:33.379Z,79.00
2022-12-24T22:38:35.252Z,62.90
2022-12-24T22:43:37.291Z,46.65
2022-12-24T22:48:40.321Z,46.50
2022-12-24T22:53:42.261Z,41.40
2022-12-24T22:58:44.688Z,56.60
2022-12-24T23:03:46.593Z,42.65
2022-12-24T23:08:48.473Z,43.08
2022-12-24T23:14:09.325Z,45.83
2022-12-24T23:19:11.609Z,37.45
2022-12-24T23:24:13.459Z,46.40
2022-12-24T23:29:15.412Z,42.97
2022-12-24T23:34:17.272Z,35.40
2022-12-24T23:39:19.511Z,33.83
2022-12-24T23:44:24.179Z,32.08
2022-12-24T23:49:30.210Z,31.98
2022-12-24T23:54:32.145Z,38.45
2022-12-24T23:59:34.761Z,37.83
